Eizo Maru — JD2944 — position and weather

sailwx.info

Track history (hours):
 
Tides and Currents Weather Stations Pressure Air Temp Water Temp Dewpoint Dewpoint Depression Visibility Wind Speed Wind Dir Waves Ship Positions

Eizo Maru

Last reported at 2016-Jun-26 15:28 UTC. Time now 2016-Jun-29 23:42 UTC.
Position N 34°07' E 135°05'.

Length 80 m; draft 5 m.

Type: Tanker. MMSI: 431000976.

Date/timePositionNaut miles runAvg speedWind from/ knotsBaromVisibWave heightAir tempDewpointWater temp
2016-Jun-26 15:28N 34°07' E 135°05'  
2016-Jun-24 03:33N 35°20' E 139°43'1111.5
2016-Jun-24 02:33N 35°30' E 139°47'2 1.5
2016-Jun-24 01:31N 35°30' E 139°45'0 0.0
2016-Jun-24 00:31N 35°30' E 139°45'0 0.0
2016-Jun-23 23:31N 35°30' E 139°45'0 0.0
2016-Jun-23 22:31N 35°30' E 139°45'3 3.0
2016-Jun-23 21:33N 35°29' E 139°48'0 0.0
2016-Jun-23 20:34N 35°29' E 139°48'0 0.0
2016-Jun-23 19:34N 35°29' E 139°48'0 0.0
2016-Jun-23 18:34N 35°29' E 139°48'0 0.0
2016-Jun-23 17:34N 35°29' E 139°48'0 0.0
2016-Jun-23 16:34N 35°29' E 139°48'0 0.0
2016-Jun-23 15:34N 35°29' E 139°48'6 5.9
2016-Jun-23 14:33N 35°23' E 139°46'1111.1
2016-Jun-23 13:33N 35°12' E 139°47'5 0.2
2016-Jun-22 12:22N 35°08' E 139°43'911.3
2016-Jun-22 11:33N 35°17' E 139°44'1010.5
2016-Jun-22 10:33N 35°27' E 139°48'1211.6
2016-Jun-22 09:33N 35°31' E 140°01'1 1.3
2016-Jun-22 08:33N 35°31' E 140°03'0 0.0
2016-Jun-22 07:33N 35°31' E 140°03'0 0.0
2016-Jun-22 06:33N 35°31' E 140°03'0 0.0
2016-Jun-22 05:30N 35°31' E 140°03'0 0.0
2016-Jun-22 04:33N 35°31' E 140°03'0 0.0
2016-Jun-22 03:33N 35°31' E 140°03'0 0.0
2016-Jun-22 02:33N 35°31' E 140°03'2 1.7
2016-Jun-22 01:33N 35°32' E 140°01'0 0.1
2016-Jun-22 00:25N 35°32' E 140°01'0 0.0
2016-Jun-21 23:31N 35°32' E 140°01'0 0.0
2016-Jun-21 22:31N 35°32' E 140°01'0 0.0
2016-Jun-21 21:31N 35°32' E 140°01'0 0.0
2016-Jun-21 20:31N 35°32' E 140°01'0 0.0
2016-Jun-21 19:31N 35°32' E 140°01'0 0.0
2016-Jun-21 18:25N 35°32' E 140°01'0 0.0
2016-Jun-21 17:31N 35°32' E 140°01'0 0.0
2016-Jun-21 16:25N 35°32' E 140°01'0 0.0
2016-Jun-21 15:25N 35°32' E 140°01'0 0.0
2016-Jun-21 14:31N 35°32' E 140°01'0 0.0
2016-Jun-21 13:25N 35°32' E 140°01'0 0.0
2016-Jun-21 12:31N 35°32' E 140°01'0 0.0
2016-Jun-21 11:19N 35°32' E 140°01'0 0.0
2016-Jun-21 10:31N 35°32' E 140°01'0 0.0
2016-Jun-21 09:25N 35°32' E 140°01'0 0.0
2016-Jun-21 08:31N 35°32' E 140°01'0 0.0
2016-Jun-21 07:19N 35°32' E 140°01'0 0.0
2016-Jun-21 06:31N 35°32' E 140°01'0 0.0
2016-Jun-21 04:31N 35°32' E 140°01'0 0.0
2016-Jun-21 03:33N 35°32' E 140°01'2 1.6
2016-Jun-21 02:33N 35°31' E 140°03'0 0.0
2016-Jun-21 01:33N 35°31' E 140°03'0 0.0
2016-Jun-21 00:33N 35°31' E 140°03'1 1.2
2016-Jun-20 23:33N 35°31' E 140°01'2 1.7
2016-Jun-20 22:31N 35°31' E 139°59'0 0.0
2016-Jun-20 21:25N 35°31' E 139°59'0 0.0
2016-Jun-20 20:31N 35°31' E 139°59'0 0.0
2016-Jun-20 19:25N 35°31' E 139°59'0 0.0
2016-Jun-20 18:31N 35°31' E 139°59'0 0.0
2016-Jun-20 17:28N 35°31' E 139°59'0 0.0
2016-Jun-20 16:28N 35°31' E 139°59'0 0.0
2016-Jun-20 15:31N 35°31' E 139°59'0 0.0
2016-Jun-20 14:31N 35°31' E 139°59'0 0.0
2016-Jun-20 13:31N 35°31' E 139°59'0 0.0
2016-Jun-20 12:31N 35°31' E 139°59'0 0.0
2016-Jun-20 11:31N 35°31' E 139°59'0 0.0
2016-Jun-20 10:28N 35°31' E 139°59'0 0.0
2016-Jun-20 09:25N 35°31' E 139°59'0 0.0
2016-Jun-20 08:31N 35°31' E 139°59'0 0.0
2016-Jun-20 07:19N 35°31' E 139°59'0 0.0
2016-Jun-20 06:31N 35°31' E 139°59'0 0.0
2016-Jun-20 05:25N 35°31' E 139°59'0 0.0
2016-Jun-20 04:31N 35°31' E 139°59'0 0.1
2016-Jun-20 03:31N 35°31' E 139°59'8 8.2
2016-Jun-20 02:33N 35°30' E 139°50'3 3.0
2016-Jun-20 01:33N 35°31' E 139°46'0 0.0
2016-Jun-20 00:33N 35°31' E 139°46'0 0.0
2016-Jun-19 23:30N 35°31' E 139°46'0 0.0
2016-Jun-19 22:33N 35°31' E 139°46'1 1.2
2016-Jun-19 21:33N 35°30' E 139°47'2 1.8
2016-Jun-19 20:32N 35°29' E 139°48'0 0.0
2016-Jun-19 19:32N 35°29' E 139°48'0 0.0
2016-Jun-19 18:32N 35°29' E 139°48'0 0.1
2016-Jun-19 17:32N 35°29' E 139°48'0 0.0
2016-Jun-19 16:32N 35°29' E 139°48'3 3.2
2016-Jun-19 15:33N 35°26' E 139°47'1211.7
2016-Jun-19 14:34N 35°14' E 139°47'240 6.3
2016-Jun-18 00:33N 34°07' E 135°07'2 2.0
2016-Jun-17 23:33N 34°08' E 135°05'  
Track history (hours):
 
Tides and Currents Weather Stations Pressure Air Temp Water Temp Dewpoint Dewpoint Depression Visibility Wind Speed Wind Dir Waves Ship Positions

Eizo Maru

Last reported at 2016-Jun-26 15:28 UTC. Time now 2016-Jun-29 23:42 UTC.
Position N 34°07' E 135°05'.

Length 80 m; draft 5 m.

Type: Tanker. MMSI: 431000976.

Date/timePositionNaut miles runAvg speedWind from/ knotsBaromVisibWave heightAir tempDewpointWater temp
2016-Jun-26 15:28N 34°07' E 135°05'  
2016-Jun-24 03:33N 35°20' E 139°43'1111.5
2016-Jun-24 02:33N 35°30' E 139°47'2 1.5
2016-Jun-24 01:31N 35°30' E 139°45'0 0.0
2016-Jun-24 00:31N 35°30' E 139°45'0 0.0
2016-Jun-23 23:31N 35°30' E 139°45'0 0.0
2016-Jun-23 22:31N 35°30' E 139°45'3 3.0
2016-Jun-23 21:33N 35°29' E 139°48'0 0.0
2016-Jun-23 20:34N 35°29' E 139°48'0 0.0
2016-Jun-23 19:34N 35°29' E 139°48'0 0.0
2016-Jun-23 18:34N 35°29' E 139°48'0 0.0
2016-Jun-23 17:34N 35°29' E 139°48'0 0.0
2016-Jun-23 16:34N 35°29' E 139°48'0 0.0
2016-Jun-23 15:34N 35°29' E 139°48'6 5.9
2016-Jun-23 14:33N 35°23' E 139°46'1111.1
2016-Jun-23 13:33N 35°12' E 139°47'5 0.2
2016-Jun-22 12:22N 35°08' E 139°43'911.3
2016-Jun-22 11:33N 35°17' E 139°44'1010.5
2016-Jun-22 10:33N 35°27' E 139°48'1211.6
2016-Jun-22 09:33N 35°31' E 140°01'1 1.3
2016-Jun-22 08:33N 35°31' E 140°03'0 0.0
2016-Jun-22 07:33N 35°31' E 140°03'0 0.0
2016-Jun-22 06:33N 35°31' E 140°03'0 0.0
2016-Jun-22 05:30N 35°31' E 140°03'0 0.0
2016-Jun-22 04:33N 35°31' E 140°03'0 0.0
2016-Jun-22 03:33N 35°31' E 140°03'0 0.0
2016-Jun-22 02:33N 35°31' E 140°03'2 1.7
2016-Jun-22 01:33N 35°32' E 140°01'0 0.1
2016-Jun-22 00:25N 35°32' E 140°01'0 0.0
2016-Jun-21 23:31N 35°32' E 140°01'0 0.0
2016-Jun-21 22:31N 35°32' E 140°01'0 0.0
2016-Jun-21 21:31N 35°32' E 140°01'0 0.0
2016-Jun-21 20:31N 35°32' E 140°01'0 0.0
2016-Jun-21 19:31N 35°32' E 140°01'0 0.0
2016-Jun-21 18:25N 35°32' E 140°01'0 0.0
2016-Jun-21 17:31N 35°32' E 140°01'0 0.0
2016-Jun-21 16:25N 35°32' E 140°01'0 0.0
2016-Jun-21 15:25N 35°32' E 140°01'0 0.0
2016-Jun-21 14:31N 35°32' E 140°01'0 0.0
2016-Jun-21 13:25N 35°32' E 140°01'0 0.0
2016-Jun-21 12:31N 35°32' E 140°01'0 0.0
2016-Jun-21 11:19N 35°32' E 140°01'0 0.0
2016-Jun-21 10:31N 35°32' E 140°01'0 0.0
2016-Jun-21 09:25N 35°32' E 140°01'0 0.0
2016-Jun-21 08:31N 35°32' E 140°01'0 0.0
2016-Jun-21 07:19N 35°32' E 140°01'0 0.0
2016-Jun-21 06:31N 35°32' E 140°01'0 0.0
2016-Jun-21 04:31N 35°32' E 140°01'0 0.0
2016-Jun-21 03:33N 35°32' E 140°01'2 1.6
2016-Jun-21 02:33N 35°31' E 140°03'0 0.0
2016-Jun-21 01:33N 35°31' E 140°03'0 0.0
2016-Jun-21 00:33N 35°31' E 140°03'1 1.2
2016-Jun-20 23:33N 35°31' E 140°01'2 1.7
2016-Jun-20 22:31N 35°31' E 139°59'0 0.0
2016-Jun-20 21:25N 35°31' E 139°59'0 0.0
2016-Jun-20 20:31N 35°31' E 139°59'0 0.0
2016-Jun-20 19:25N 35°31' E 139°59'0 0.0
2016-Jun-20 18:31N 35°31' E 139°59'0 0.0
2016-Jun-20 17:28N 35°31' E 139°59'0 0.0
2016-Jun-20 16:28N 35°31' E 139°59'0 0.0
2016-Jun-20 15:31N 35°31' E 139°59'0 0.0
2016-Jun-20 14:31N 35°31' E 139°59'0 0.0
2016-Jun-20 13:31N 35°31' E 139°59'0 0.0
2016-Jun-20 12:31N 35°31' E 139°59'0 0.0
2016-Jun-20 11:31N 35°31' E 139°59'0 0.0
2016-Jun-20 10:28N 35°31' E 139°59'0 0.0
2016-Jun-20 09:25N 35°31' E 139°59'0 0.0
2016-Jun-20 08:31N 35°31' E 139°59'0 0.0
2016-Jun-20 07:19N 35°31' E 139°59'0 0.0
2016-Jun-20 06:31N 35°31' E 139°59'0 0.0
2016-Jun-20 05:25N 35°31' E 139°59'0 0.0
2016-Jun-20 04:31N 35°31' E 139°59'0 0.1
2016-Jun-20 03:31N 35°31' E 139°59'8 8.2
2016-Jun-20 02:33N 35°30' E 139°50'3 3.0
2016-Jun-20 01:33N 35°31' E 139°46'0 0.0
2016-Jun-20 00:33N 35°31' E 139°46'0 0.0
2016-Jun-19 23:30N 35°31' E 139°46'0 0.0
2016-Jun-19 22:33N 35°31' E 139°46'1 1.2
2016-Jun-19 21:33N 35°30' E 139°47'2 1.8
2016-Jun-19 20:32N 35°29' E 139°48'0 0.0
2016-Jun-19 19:32N 35°29' E 139°48'0 0.0
2016-Jun-19 18:32N 35°29' E 139°48'0 0.1
2016-Jun-19 17:32N 35°29' E 139°48'0 0.0
2016-Jun-19 16:32N 35°29' E 139°48'3 3.2
2016-Jun-19 15:33N 35°26' E 139°47'1211.7
2016-Jun-19 14:34N 35°14' E 139°47'240 6.3
2016-Jun-18 00:33N 34°07' E 135°07'2 2.0
2016-Jun-17 23:33N 34°08' E 135°05'  

Dump ship's entire track history